CPX656 Details

Departure: Key West International Airport (KEYW)
Arrival: The Florida Keys Marathon International Airport (KMTH) at N/A
Route: VPKOE
Notes:


Current Weather Information
KEYW 191553Z 10016KT 10SM FEW030 32/24 A3006 RMK AO2 LTG DSNT S SLP177 T03220239
KMTH 191553Z AUTO 10010G17KT 10SM FEW029 32/24 A3005 RMK AO2 SLP176 T03220239